Time;durP1;ratioP1;P1;durP2;ratioP2;P2;SDS_P1;SDS_P2;PMS_P1;PMS_P2;Temp;Humidity;BMP_temperature;BMP_pressure;BME280_temperature;BME280_humidity;BME280_pressure;Samples;Min_cycle;Max_cycle;Signal;HPM_P1;HPM_P2
2022/05/21 00:00:31;;;;;;;;;0.00;0.00;;;;;;;;5151171;28;8792;-70
2022/05/21 00:03:02;;;;;;;;;0.00;0.00;;;;;;;;5167037;28;8787;-70
2022/05/21 00:05:34;;;;;;;;;0.00;0.00;;;;;;;;5167033;28;8807;-70
2022/05/21 00:08:06;;;;;;;;;11.00;11.00;;;;;;;;5150472;28;8792;-71
2022/05/21 00:10:38;;;;;;;;;0.00;0.00;;;;;;;;5156164;28;8828;-71
2022/05/21 00:13:09;;;;;;;;;0.00;0.00;;;;;;;;5191868;28;9590;-71
2022/05/21 00:15:41;;;;;;;;;1.40;1.40;;;;;;;;5186645;28;8784;-71
2022/05/21 00:18:12;;;;;;;;;0.00;0.00;;;;;;;;5170976;28;9582;-71
2022/05/21 00:20:49;;;;;;;;;4.20;4.20;;;;;;;;5154486;28;8859;-71
2022/05/21 00:23:38;;;;;;;;;0.00;0.00;;;;;;;;5173916;28;8791;-71
2022/05/21 00:26:11;;;;;;;;;0.00;0.00;;;;;;;;5171026;28;8831;-71
2022/05/21 00:28:43;;;;;;;;;19.80;19.80;;;;;;;;5186898;28;8846;-71
2022/05/21 00:31:16;;;;;;;;;7.00;7.00;;;;;;;;5167762;28;8934;-71
2022/05/21 00:33:47;;;;;;;;;6.60;6.60;;;;;;;;5142191;28;8796;-71
2022/05/21 00:36:18;;;;;;;;;0.00;0.00;;;;;;;;5170836;28;8922;-71
2022/05/21 00:38:50;;;;;;;;;2.80;2.80;;;;;;;;5186849;28;8842;-70
2022/05/21 00:41:21;;;;;;;;;0.00;0.00;;;;;;;;5191918;28;8869;-71
2022/05/21 00:43:59;;;;;;;;;0.00;0.00;;;;;;;;5170706;28;8787;-70
2022/05/21 00:46:32;;;;;;;;;0.00;0.00;;;;;;;;5170855;28;9633;-71
2022/05/21 00:49:29;;;;;;;;;0.00;0.00;;;;;;;;5173069;28;8830;-71
2022/05/21 00:52:24;;;;;;;;;0.00;0.00;;;;;;;;5175480;28;9586;-70
2022/05/21 00:54:59;;;;;;;;;1.20;1.20;;;;;;;;5207247;28;8781;-70
2022/05/21 00:57:39;;;;;;;;;0.00;0.00;;;;;;;;5207005;28;8785;-70
2022/05/21 01:00:13;;;;;;;;;0.00;0.00;;;;;;;;5208108;28;8797;-69
2022/05/21 01:02:54;;;;;;;;;0.00;0.00;;;;;;;;5158201;28;8789;-70
2022/05/21 01:05:26;;;;;;;;;1.00;1.00;;;;;;;;5174475;28;8789;-70
2022/05/21 01:07:58;;;;;;;;;0.40;0.40;;;;;;;;5153438;28;8831;-71
2022/05/21 01:10:51;;;;;;;;;0.00;0.00;;;;;;;;5172810;28;8783;-71
2022/05/21 01:13:42;;;;;;;;;0.00;0.00;;;;;;;;5169904;28;8944;-71
2022/05/21 01:16:15;;;;;;;;;0.00;0.00;;;;;;;;5169849;28;8783;-71
2022/05/21 01:18:47;;;;;;;;;1.00;1.00;;;;;;;;5186024;28;8776;-71
2022/05/21 01:21:17;;;;;;;;;0.50;0.00;;;;;;;;5169726;28;8779;-71
2022/05/21 01:24:08;;;;;;;;;0.00;0.00;;;;;;;;5159080;28;8797;-71
2022/05/21 01:26:40;;;;;;;;;0.00;0.00;;;;;;;;5203802;28;8805;-71
2022/05/21 01:29:30;;;;;;;;;0.00;0.00;;;;;;;;5190357;28;8801;-71
2022/05/21 01:32:20;;;;;;;;;1.20;1.20;;;;;;;;5185821;28;8865;-71
2022/05/21 01:35:10;;;;;;;;;0.00;0.00;;;;;;;;5156086;28;8897;-71
2022/05/21 01:37:41;;;;;;;;;0.00;0.00;;;;;;;;5170027;28;9549;-71
2022/05/21 01:40:15;;;;;;;;;0.00;0.00;;;;;;;;5153432;28;9599;-71
2022/05/21 01:44:37;;;;;;;;;0.00;0.00;;;;;;;;5153579;28;8862;-71
2022/05/21 01:45:38;;;;;;;;;0.80;0.80;;;;;;;;5153322;28;8898;-71
2022/05/21 01:48:09;;;;;;;;;0.00;0.00;;;;;;;;5169424;28;8767;-71
2022/05/21 01:50:40;;;;;;;;;0.60;0.60;;;;;;;;5185091;28;8798;-71
2022/05/21 01:53:12;;;;;;;;;2.60;2.60;;;;;;;;5173306;28;8816;-71
2022/05/21 01:55:44;;;;;;;;;0.00;0.00;;;;;;;;5189927;28;8785;-71
2022/05/21 01:58:15;;;;;;;;;0.00;0.00;;;;;;;;5206007;28;8800;-69
2022/05/21 02:00:46;;;;;;;;;0.00;0.00;;;;;;;;5172896;28;8797;-69
2022/05/21 02:03:17;;;;;;;;;0.00;0.00;;;;;;;;5189568;28;8785;-70
2022/05/21 02:05:49;;;;;;;;;0.00;0.00;;;;;;;;5153602;28;8865;-70
2022/05/21 02:08:20;;;;;;;;;0.00;0.00;;;;;;;;5184583;28;8926;-70
2022/05/21 02:11:10;;;;;;;;;0.00;0.00;;;;;;;;5169209;28;8877;-69
2022/05/21 02:13:41;;;;;;;;;0.00;0.00;;;;;;;;5168729;28;9526;-69
2022/05/21 02:16:30;;;;;;;;;2.60;2.60;;;;;;;;5169105;28;8811;-69
2022/05/21 02:19:03;;;;;;;;;2.20;2.20;;;;;;;;5168854;28;8795;-69
2022/05/21 02:21:36;;;;;;;;;2.80;2.80;;;;;;;;5168390;28;8817;-69
2022/05/21 02:24:26;;;;;;;;;9.00;9.00;;;;;;;;5154996;28;8807;-69
2022/05/21 02:26:57;;;;;;;;;8.80;8.80;;;;;;;;5171893;28;8832;-70
2022/05/21 02:29:29;;;;;;;;;5.60;5.60;;;;;;;;5172466;28;8835;-70
2022/05/21 02:32:00;;;;;;;;;11.60;11.60;;;;;;;;5189464;28;8809;-69
2022/05/21 02:34:50;;;;;;;;;13.60;13.60;;;;;;;;5190146;28;8821;-70
2022/05/21 02:40:10;;;;;;;;;0.00;0.00;;;;;;;;5188594;28;8825;-70
2022/05/21 02:43:00;;;;;;;;;28.40;26.00;;;;;;;;5188441;28;8817;-70
2022/05/21 02:45:33;;;;;;;;;19.60;19.60;;;;;;;;5187004;28;8809;-72
2022/05/21 02:48:04;;;;;;;;;3.80;3.80;;;;;;;;5184363;28;8799;-71
2022/05/21 02:50:36;;;;;;;;;0.00;0.00;;;;;;;;5151672;28;8835;-71
2022/05/21 02:53:13;;;;;;;;;0.00;0.00;;;;;;;;5184642;28;8857;-71
2022/05/21 02:55:44;;;;;;;;;0.40;0.40;;;;;;;;5152144;28;8804;-71
2022/05/21 02:58:17;;;;;;;;;0.00;0.00;;;;;;;;5167812;28;8799;-71
2022/05/21 03:00:48;;;;;;;;;0.00;0.00;;;;;;;;5199089;28;8830;-71
2022/05/21 03:03:38;;;;;;;;;0.00;0.00;;;;;;;;5167846;28;8776;-72
2022/05/21 03:06:09;;;;;;;;;0.00;0.00;;;;;;;;5200460;28;9516;-72
2022/05/21 03:11:30;;;;;;;;;0.00;0.00;;;;;;;;5171899;28;8765;-70
2022/05/21 03:14:19;;;;;;;;;0.00;0.00;;;;;;;;5205608;28;8773;-70
2022/05/21 03:16:56;;;;;;;;;0.00;0.00;;;;;;;;5188006;28;8786;-69
2022/05/21 03:19:28;;;;;;;;;0.20;0.00;;;;;;;;5168079;28;8783;-70
2022/05/21 03:22:00;;;;;;;;;1.00;1.00;;;;;;;;5167447;28;8771;-69
2022/05/21 03:24:31;;;;;;;;;0.00;0.00;;;;;;;;5151664;28;8965;-69
2022/05/21 03:27:03;;;;;;;;;0.00;0.00;;;;;;;;5167454;28;8809;-69
2022/05/21 03:29:35;;;;;;;;;0.00;0.00;;;;;;;;5185190;28;8824;-69
2022/05/21 03:32:07;;;;;;;;;0.00;0.00;;;;;;;;5184813;28;8857;-70
2022/05/21 03:34:38;;;;;;;;;64.60;54.80;;;;;;;;5165319;28;8771;-69
2022/05/21 03:37:09;;;;;;;;;0.00;0.00;;;;;;;;5166929;28;8847;-70
2022/05/21 03:39:41;;;;;;;;;0.00;0.00;;;;;;;;5184804;28;8811;-69
2022/05/21 03:42:12;;;;;;;;;2.00;2.00;;;;;;;;5185149;28;8772;-69
2022/05/21 03:44:45;;;;;;;;;2.00;2.00;;;;;;;;5183044;28;8787;-69
2022/05/21 03:47:17;;;;;;;;;1.00;1.00;;;;;;;;5182997;28;8783;-69
2022/05/21 03:49:48;;;;;;;;;1.80;1.80;;;;;;;;5167038;28;8965;-70
2022/05/21 03:52:20;;;;;;;;;0.00;0.00;;;;;;;;5183235;28;8937;-70
2022/05/21 03:54:51;;;;;;;;;0.00;0.00;;;;;;;;5199746;28;8794;-70
2022/05/21 03:57:28;;;;;;;;;0.00;0.00;;;;;;;;5187243;28;8815;-69
2022/05/21 04:00:03;;;;;;;;;0.00;0.00;;;;;;;;5187173;28;8899;-69
2022/05/21 04:02:43;;;;;;;;;0.00;0.00;;;;;;;;5187326;28;8785;-70
2022/05/21 04:05:15;;;;;;;;;0.80;0.80;;;;;;;;5171195;28;8904;-70
2022/05/21 04:07:46;;;;;;;;;0.00;0.00;;;;;;;;5170923;28;8774;-69
2022/05/21 04:10:36;;;;;;;;;9.00;9.00;;;;;;;;5187247;28;8781;-69
2022/05/21 04:13:08;;;;;;;;;117.00;91.50;;;;;;;;5170613;28;8774;-70
2022/05/21 04:15:57;;;;;;;;;8.60;8.60;;;;;;;;5188830;28;8801;-71
2022/05/21 04:18:28;;;;;;;;;2.00;2.00;;;;;;;;5186995;28;8789;-70
2022/05/21 04:21:00;;;;;;;;;0.00;0.00;;;;;;;;5168640;28;8790;-69
2022/05/21 04:23:49;;;;;;;;;1.80;1.80;;;;;;;;5183259;28;8783;-69
2022/05/21 04:26:20;;;;;;;;;2.00;2.00;;;;;;;;5184031;28;8852;-70
2022/05/21 04:28:52;;;;;;;;;1.80;1.80;;;;;;;;5189232;28;8852;-67
2022/05/21 04:31:23;;;;;;;;;1.00;1.00;;;;;;;;5162356;28;9511;-68
2022/05/21 04:33:54;;;;;;;;;0.00;0.00;;;;;;;;5150721;28;8914;-71
2022/05/21 04:36:25;;;;;;;;;1.00;1.00;;;;;;;;5134318;28;8803;-72
2022/05/21 04:38:56;;;;;;;;;1.00;1.00;;;;;;;;5150699;28;9539;-71
2022/05/21 04:41:27;;;;;;;;;0.75;0.75;;;;;;;;5183996;28;9506;-71
2022/05/21 04:43:58;;;;;;;;;2.00;2.00;;;;;;;;5166577;28;10341;-70
2022/05/21 04:46:32;;;;;;;;;1.00;1.00;;;;;;;;5183838;28;8842;-72
2022/05/21 04:49:04;;;;;;;;;4.60;4.60;;;;;;;;5148498;28;8892;-75
2022/05/21 04:51:36;;;;;;;;;21.80;21.20;;;;;;;;5164896;28;8788;-72
2022/05/21 04:54:07;;;;;;;;;2.00;2.00;;;;;;;;5148803;28;8831;-72
2022/05/21 04:56:38;;;;;;;;;11.00;11.00;;;;;;;;5149287;28;8799;-76
2022/05/21 04:59:10;;;;;;;;;2.60;2.60;;;;;;;;5168250;28;8811;-71
2022/05/21 05:02:00;;;;;;;;;2.40;2.40;;;;;;;;5168753;28;8811;-71
2022/05/21 05:04:50;;;;;;;;;6.20;6.20;;;;;;;;5163981;28;8914;-71
2022/05/21 05:07:23;;;;;;;;;8.80;8.20;;;;;;;;5168400;28;8825;-72
2022/05/21 05:09:55;;;;;;;;;1.00;0.20;;;;;;;;5168556;28;8822;-73
2022/05/21 05:12:26;;;;;;;;;1.00;1.00;;;;;;;;5168424;28;8839;-74
2022/05/21 05:14:57;;;;;;;;;0.00;0.00;;;;;;;;5172857;28;8809;-74
2022/05/21 05:17:28;;;;;;;;;0.60;0.60;;;;;;;;5193274;28;9521;-73
2022/05/21 05:20:00;;;;;;;;;0.60;0.60;;;;;;;;5170740;28;8805;-72
2022/05/21 05:22:32;;;;;;;;;8.60;8.60;;;;;;;;5173666;28;9618;-72
2022/05/21 05:25:05;;;;;;;;;11.20;10.40;;;;;;;;5173509;28;8948;-72
2022/05/21 05:27:47;;;;;;;;;6.00;6.00;;;;;;;;5192418;28;8819;-76
2022/05/21 05:30:21;;;;;;;;;9.80;9.20;;;;;;;;5192884;28;8837;-73
2022/05/21 05:33:10;;;;;;;;;2.00;2.00;;;;;;;;5196895;28;8831;-74
2022/05/21 05:35:52;;;;;;;;;0.00;0.00;;;;;;;;5214447;28;8813;-72
2022/05/21 05:38:23;;;;;;;;;0.00;0.00;;;;;;;;5211977;28;8859;-72
2022/05/21 05:40:55;;;;;;;;;1.00;1.00;;;;;;;;5194275;28;8902;-72
2022/05/21 05:43:26;;;;;;;;;5.20;5.20;;;;;;;;5210251;28;8841;-73
2022/05/21 05:45:58;;;;;;;;;7.00;7.00;;;;;;;;5193528;28;8787;-72
2022/05/21 05:48:30;;;;;;;;;8.40;8.40;;;;;;;;5209942;28;11417;-72
2022/05/21 05:51:02;;;;;;;;;4.80;4.80;;;;;;;;5228154;28;8845;-72
2022/05/21 05:53:33;;;;;;;;;2.40;2.40;;;;;;;;5210171;28;8830;-73
2022/05/21 05:56:08;;;;;;;;;1.00;1.00;;;;;;;;5193390;28;8856;-72
2022/05/21 06:01:30;;;;;;;;;3.80;3.00;;;;;;;;5159019;28;8837;-72
2022/05/21 06:04:02;;;;;;;;;3.50;3.50;;;;;;;;5172735;28;9538;-72
2022/05/21 06:06:51;;;;;;;;;2.40;2.40;;;;;;;;5191584;28;9261;-73
2022/05/21 06:09:22;;;;;;;;;6.60;6.60;;;;;;;;5206113;28;8808;-71
2022/05/21 06:11:53;;;;;;;;;4.40;4.40;;;;;;;;5172752;28;8823;-71
2022/05/21 06:14:25;;;;;;;;;1.00;1.00;;;;;;;;5172419;28;8789;-73
2022/05/21 06:16:56;;;;;;;;;1.80;1.80;;;;;;;;5172342;28;8791;-73
2022/05/21 06:19:33;;;;;;;;;2.00;2.00;;;;;;;;5172682;28;8785;-71
2022/05/21 06:22:04;;;;;;;;;1.40;1.40;;;;;;;;5206360;28;8797;-71
2022/05/21 06:24:53;;;;;;;;;0.00;0.00;;;;;;;;5197389;28;8774;-73
2022/05/21 06:27:46;;;;;;;;;0.20;0.20;;;;;;;;5225301;28;8906;-72
2022/05/21 06:30:18;;;;;;;;;1.00;1.00;;;;;;;;5192715;28;8811;-71
2022/05/21 06:32:50;;;;;;;;;0.20;0.20;;;;;;;;5177248;28;9626;-72
2022/05/21 06:35:21;;;;;;;;;0.40;0.40;;;;;;;;5188615;28;8791;-73
2022/05/21 06:37:52;;;;;;;;;0.40;0.40;;;;;;;;5172054;28;8787;-73
2022/05/21 06:40:23;;;;;;;;;1.00;1.00;;;;;;;;5205988;28;8767;-72
2022/05/21 06:42:54;;;;;;;;;2.80;2.80;;;;;;;;5183959;28;8950;-72
2022/05/21 06:45:26;;;;;;;;;1.00;1.00;;;;;;;;5171214;28;8910;-73
2022/05/21 06:48:01;;;;;;;;;0.00;0.00;;;;;;;;5184220;28;8829;-74
2022/05/21 06:50:33;;;;;;;;;1.00;1.00;;;;;;;;5168243;28;8892;-71
2022/05/21 06:53:05;;;;;;;;;2.00;2.00;;;;;;;;5168580;28;8857;-70
2022/05/21 06:55:37;;;;;;;;;2.00;2.00;;;;;;;;5167925;28;8799;-70
2022/05/21 06:58:26;;;;;;;;;5.20;5.20;;;;;;;;5171676;28;8799;-69
2022/05/21 07:00:59;;;;;;;;;1.80;1.00;;;;;;;;5193245;28;8903;-70
2022/05/21 07:03:49;;;;;;;;;3.20;3.20;;;;;;;;5170565;28;8888;-68
2022/05/21 07:09:09;;;;;;;;;0.60;0.60;;;;;;;;5167986;28;8809;-70
2022/05/21 07:11:41;;;;;;;;;4.00;4.00;;;;;;;;5182362;28;8827;-72
2022/05/21 07:14:12;;;;;;;;;12.00;12.00;;;;;;;;5134452;28;11474;-71
2022/05/21 07:16:44;;;;;;;;;3.20;3.20;;;;;;;;5167517;28;8831;-71
2022/05/21 07:19:35;;;;;;;;;69.00;52.60;;;;;;;;5189043;28;8807;-71
2022/05/21 07:22:06;;;;;;;;;0.00;0.00;;;;;;;;5187867;28;8829;-72
2022/05/21 07:24:42;;;;;;;;;17.60;17.20;;;;;;;;5185980;28;9572;-73
2022/05/21 07:27:13;;;;;;;;;3.40;3.40;;;;;;;;5169138;28;9663;-71
2022/05/21 07:29:45;;;;;;;;;0.40;0.40;;;;;;;;5161099;28;8858;-73
2022/05/21 07:32:34;;;;;;;;;0.00;0.00;;;;;;;;5160980;28;9624;-72
2022/05/21 07:35:07;;;;;;;;;0.00;0.00;;;;;;;;5169154;28;8854;-71
2022/05/21 07:37:39;;;;;;;;;0.00;0.00;;;;;;;;5169446;28;8833;-71
2022/05/21 07:40:13;;;;;;;;;1.40;1.40;;;;;;;;5186289;28;8854;-71
2022/05/21 07:42:44;;;;;;;;;0.00;0.00;;;;;;;;5186134;28;8798;-70
2022/05/21 07:45:16;;;;;;;;;0.00;0.00;;;;;;;;5171143;28;8786;-70
2022/05/21 07:47:47;;;;;;;;;0.00;0.00;;;;;;;;5187493;28;9497;-70
2022/05/21 07:50:20;;;;;;;;;1.00;1.00;;;;;;;;5170784;28;8818;-71
2022/05/21 07:52:51;;;;;;;;;0.00;0.00;;;;;;;;5154838;28;9541;-70
2022/05/21 07:55:22;;;;;;;;;0.00;0.00;;;;;;;;5205202;28;8798;-70
2022/05/21 07:57:53;;;;;;;;;0.00;0.00;;;;;;;;5171041;28;9537;-70
2022/05/21 08:00:24;;;;;;;;;0.60;0.60;;;;;;;;5187294;28;8809;-71
2022/05/21 08:02:55;;;;;;;;;0.00;0.00;;;;;;;;5170819;28;8783;-70
2022/05/21 08:05:26;;;;;;;;;0.00;0.00;;;;;;;;5187335;28;8786;-71
2022/05/21 08:07:57;;;;;;;;;1.60;1.60;;;;;;;;5187356;28;10605;-70
2022/05/21 08:10:28;;;;;;;;;0.00;0.00;;;;;;;;5170729;28;8946;-70
2022/05/21 08:13:17;;;;;;;;;3.20;3.20;;;;;;;;5204595;28;8794;-71
2022/05/21 08:16:07;;;;;;;;;0.20;0.00;;;;;;;;5205030;28;8790;-70
2022/05/21 08:18:38;;;;;;;;;7.00;6.20;;;;;;;;5187183;28;8795;-70
2022/05/21 08:21:08;;;;;;;;;0.75;0.75;;;;;;;;5187200;28;8779;-71
2022/05/21 08:29:18;;;;;;;;;0.00;0.00;;;;;;;;5170788;28;8814;-71
2022/05/21 08:31:49;;;;;;;;;0.00;0.00;;;;;;;;5188144;28;9575;-71
2022/05/21 08:34:39;;;;;;;;;1.60;1.60;;;;;;;;5190961;28;9459;-71
2022/05/21 08:37:10;;;;;;;;;3.25;2.75;;;;;;;;5168425;28;8951;-71
2022/05/21 08:39:41;;;;;;;;;0.00;0.00;;;;;;;;5186972;28;9488;-71
2022/05/21 08:42:25;;;;;;;;;0.00;0.00;;;;;;;;5170586;28;8800;-71
2022/05/21 08:45:23;;;;;;;;;0.00;0.00;;;;;;;;5173714;28;9486;-72
2022/05/21 08:48:02;;;;;;;;;0.00;0.00;;;;;;;;5154579;28;8789;-71
2022/05/21 08:50:34;;;;;;;;;0.00;0.00;;;;;;;;5154305;28;8821;-71
2022/05/21 08:53:07;;;;;;;;;6.20;6.20;;;;;;;;5154040;28;8831;-71
2022/05/21 08:55:39;;;;;;;;;0.00;0.00;;;;;;;;5154137;28;8816;-71
2022/05/21 08:58:40;;;;;;;;;0.00;0.00;;;;;;;;5153925;28;8785;-71
2022/05/21 09:01:12;;;;;;;;;0.80;0.80;;;;;;;;5161584;28;9570;-70
2022/05/21 09:03:44;;;;;;;;;0.00;0.00;;;;;;;;5153918;28;8773;-71
2022/05/21 09:06:56;;;;;;;;;3.00;3.00;;;;;;;;5170007;28;8781;-71
2022/05/21 09:09:39;;;;;;;;;0.00;0.00;;;;;;;;5162802;28;8823;-71
2022/05/21 09:12:17;;;;;;;;;3.80;3.80;;;;;;;;5154064;28;8804;-70
2022/05/21 09:15:00;;;;;;;;;0.00;0.00;;;;;;;;5170339;28;8761;-71
2022/05/21 09:17:41;;;;;;;;;0.00;0.00;;;;;;;;5170037;28;8809;-71
2022/05/21 09:20:18;;;;;;;;;0.00;0.00;;;;;;;;5137469;28;8801;-71
2022/05/21 09:22:53;;;;;;;;;0.00;0.00;;;;;;;;5169943;28;8769;-71
2022/05/21 09:25:42;;;;;;;;;0.00;0.00;;;;;;;;5156232;28;8777;-71
2022/05/21 09:28:19;;;;;;;;;2.00;2.00;;;;;;;;5153385;28;8795;-71
2022/05/21 09:30:57;;;;;;;;;6.20;5.80;;;;;;;;5187830;28;10096;-71
2022/05/21 09:33:40;;;;;;;;;19.60;19.00;;;;;;;;5153503;28;8915;-71
2022/05/21 09:36:18;;;;;;;;;6.80;5.80;;;;;;;;5153602;28;8805;-71
2022/05/21 09:38:50;;;;;;;;;19.20;19.20;;;;;;;;5168278;28;8829;-71
2022/05/21 09:41:40;;;;;;;;;13.80;13.20;;;;;;;;5169366;28;8779;-71
2022/05/21 09:47:22;;;;;;;;;2.00;2.00;;;;;;;;5169268;28;8990;-71
2022/05/21 09:50:03;;;;;;;;;1.00;1.00;;;;;;;;5169984;28;8793;-71
2022/05/21 09:52:34;;;;;;;;;1.40;1.40;;;;;;;;5153207;28;8788;-71
2022/05/21 09:55:39;;;;;;;;;2.00;2.00;;;;;;;;5169201;28;8781;-71
2022/05/21 09:58:13;;;;;;;;;0.40;0.40;;;;;;;;5121158;28;8769;-71
2022/05/21 10:00:51;;;;;;;;;0.00;0.00;;;;;;;;5185543;28;8842;-71
2022/05/21 10:03:58;;;;;;;;;1.00;1.00;;;;;;;;5169286;28;8801;-70
2022/05/21 10:07:10;;;;;;;;;2.00;2.00;;;;;;;;5104150;29;8803;-70
2022/05/21 10:12:53;;;;;;;;;0.60;0.60;;;;;;;;5169663;28;8910;-71
2022/05/21 10:15:29;;;;;;;;;3.40;3.40;;;;;;;;5152734;28;8815;-71
2022/05/21 10:18:07;;;;;;;;;0.00;0.00;;;;;;;;5152852;28;8785;-71
2022/05/21 10:20:43;;;;;;;;;2.20;2.20;;;;;;;;5168684;28;8784;-71
2022/05/21 10:23:42;;;;;;;;;0.00;0.00;;;;;;;;5168799;28;8799;-70
2022/05/21 10:26:13;;;;;;;;;1.00;1.00;;;;;;;;5186072;28;8765;-70
2022/05/21 10:28:53;;;;;;;;;2.00;2.00;;;;;;;;5168595;28;8854;-71
2022/05/21 10:31:33;;;;;;;;;7.40;7.40;;;;;;;;5152418;28;8761;-70
2022/05/21 10:34:13;;;;;;;;;1.40;1.40;;;;;;;;5168724;28;8863;-70
2022/05/21 10:37:03;;;;;;;;;0.00;0.00;;;;;;;;5154706;28;9605;-70
2022/05/21 10:39:40;;;;;;;;;0.00;0.00;;;;;;;;5156696;28;8777;-71
2022/05/21 10:42:40;;;;;;;;;0.00;0.00;;;;;;;;5156457;28;8899;-71
2022/05/21 10:45:25;;;;;;;;;1.80;1.80;;;;;;;;5102945;28;8808;-70
2022/05/21 10:48:00;;;;;;;;;0.60;0.60;;;;;;;;5172573;28;8769;-70
2022/05/21 10:51:13;;;;;;;;;5.20;5.20;;;;;;;;5191467;28;8785;-70
2022/05/21 10:54:05;;;;;;;;;7.00;7.00;;;;;;;;5172290;28;9504;-70
2022/05/21 10:56:37;;;;;;;;;2.00;2.00;;;;;;;;5205692;28;8792;-70
2022/05/21 10:59:38;;;;;;;;;2.00;2.00;;;;;;;;5188479;28;8796;-70
2022/05/21 11:02:21;;;;;;;;;0.00;0.00;;;;;;;;5155655;28;9536;-70
2022/05/21 11:05:32;;;;;;;;;2.00;2.00;;;;;;;;5174312;28;8854;-70
2022/05/21 11:08:16;;;;;;;;;0.00;0.00;;;;;;;;5205709;28;8805;-70
2022/05/21 11:10:53;;;;;;;;;2.00;2.00;;;;;;;;5187880;28;8829;-70
2022/05/21 11:13:32;;;;;;;;;2.00;2.00;;;;;;;;5155720;28;8797;-69
2022/05/21 11:16:29;;;;;;;;;0.80;0.80;;;;;;;;5205877;28;8785;-71
2022/05/21 11:19:02;;;;;;;;;1.00;1.00;;;;;;;;5141823;28;9575;-70
2022/05/21 11:21:39;;;;;;;;;2.00;2.00;;;;;;;;5155214;28;8789;-69
2022/05/21 11:24:22;;;;;;;;;13.80;13.20;;;;;;;;5188110;28;8866;-71
2022/05/21 11:26:57;;;;;;;;;2.60;2.60;;;;;;;;5171692;28;8805;-71
2022/05/21 11:29:34;;;;;;;;;1.20;1.00;;;;;;;;5171112;28;9702;-71
2022/05/21 11:38:40;;;;;;;;;4.60;4.60;;;;;;;;5171478;28;8809;-71
2022/05/21 11:41:30;;;;;;;;;1.00;1.00;;;;;;;;5155139;28;8801;-71
2022/05/21 11:47:07;;;;;;;;;3.00;3.00;;;;;;;;5187480;28;8781;-70
2022/05/21 11:49:38;;;;;;;;;5.00;2.00;;;;;;;;5187651;28;8813;-69
2022/05/21 11:52:28;;;;;;;;;8.50;7.50;;;;;;;;5204847;28;8855;-70
2022/05/21 11:55:14;;;;;;;;;6.80;6.80;;;;;;;;5187992;28;9568;-68
2022/05/21 11:57:45;;;;;;;;;2.20;2.00;;;;;;;;5171066;28;8816;-69
2022/05/21 12:00:25;;;;;;;;;2.00;2.00;;;;;;;;5186787;28;8878;-71
2022/05/21 12:02:56;;;;;;;;;4.60;4.60;;;;;;;;5170599;28;9493;-70
2022/05/21 12:05:34;;;;;;;;;3.00;3.00;;;;;;;;5204963;28;8777;-69
2022/05/21 12:08:05;;;;;;;;;1.40;1.40;;;;;;;;5204003;28;9543;-69
2022/05/21 12:10:58;;;;;;;;;5.00;5.00;;;;;;;;5170731;28;8937;-70
2022/05/21 12:13:34;;;;;;;;;4.00;3.00;;;;;;;;5205091;28;8804;-70
2022/05/21 12:16:24;;;;;;;;;6.60;6.60;;;;;;;;5204839;28;8785;-71
2022/05/21 12:18:55;;;;;;;;;21.60;21.60;;;;;;;;5170862;28;8769;-70
2022/05/21 12:21:40;;;;;;;;;3.25;3.00;;;;;;;;5186989;28;8788;-70
2022/05/21 12:24:37;;;;;;;;;6.20;6.20;;;;;;;;5171142;28;8797;-71
2022/05/21 12:27:27;;;;;;;;;0.40;0.40;;;;;;;;5182714;28;8854;-70
2022/05/21 12:30:00;;;;;;;;;5.00;5.00;;;;;;;;5203325;28;8801;-69
2022/05/21 12:32:33;;;;;;;;;4.20;4.20;;;;;;;;5187360;28;8789;-68
2022/05/21 12:35:24;;;;;;;;;5.20;5.00;;;;;;;;5187254;28;8886;-70
2022/05/21 12:37:59;;;;;;;;;1.80;1.40;;;;;;;;5154436;28;8812;-69
2022/05/21 12:40:36;;;;;;;;;2.00;2.00;;;;;;;;5187035;28;8789;-69
2022/05/21 12:43:11;;;;;;;;;5.00;4.40;;;;;;;;5154281;28;8844;-69
2022/05/21 12:46:01;;;;;;;;;7.00;7.00;;;;;;;;5172135;28;8805;-69
2022/05/21 12:48:34;;;;;;;;;0.00;0.00;;;;;;;;5169506;28;8935;-68
2022/05/21 12:51:08;;;;;;;;;1.20;1.20;;;;;;;;5185153;28;8789;-70
2022/05/21 12:53:58;;;;;;;;;0.00;0.00;;;;;;;;5183279;28;8821;-72
2022/05/21 12:56:33;;;;;;;;;1.00;1.00;;;;;;;;5175959;28;8799;-73
2022/05/21 12:59:05;;;;;;;;;3.60;3.00;;;;;;;;5182237;28;8787;-76
2022/05/21 13:01:43;;;;;;;;;8.00;8.00;;;;;;;;5176554;28;8798;-72
2022/05/21 13:04:24;;;;;;;;;3.40;3.40;;;;;;;;5205673;28;8858;-70
2022/05/21 13:07:21;;;;;;;;;7.80;7.80;;;;;;;;5201506;28;8824;-71
2022/05/21 13:10:15;;;;;;;;;7.80;7.80;;;;;;;;5201556;28;8824;-70
2022/05/21 13:12:53;;;;;;;;;0.80;0.80;;;;;;;;5201790;28;8792;-71
2022/05/21 13:15:29;;;;;;;;;12.00;10.40;;;;;;;;5202376;28;8943;-72
2022/05/21 13:18:04;;;;;;;;;6.00;6.00;;;;;;;;5203946;28;8991;-72
2022/05/21 13:20:45;;;;;;;;;3.00;3.00;;;;;;;;5203775;28;8962;-70
2022/05/21 13:23:50;;;;;;;;;2.20;2.20;;;;;;;;5186357;28;8851;-70
2022/05/21 13:26:23;;;;;;;;;2.60;2.60;;;;;;;;5198725;28;8778;-70
2022/05/21 13:29:12;;;;;;;;;4.80;4.80;;;;;;;;5197904;28;8866;-71
2022/05/21 13:31:43;;;;;;;;;12.20;12.20;;;;;;;;5184761;28;8833;-77
2022/05/21 13:34:16;;;;;;;;;10.00;9.40;;;;;;;;5188274;28;8824;-72
2022/05/21 13:36:50;;;;;;;;;3.00;3.00;;;;;;;;5204434;28;8873;-70
2022/05/21 13:39:28;;;;;;;;;11.60;11.00;;;;;;;;5200594;28;8806;-70
2022/05/21 13:42:01;;;;;;;;;10.00;10.00;;;;;;;;5189832;28;9601;-70
2022/05/21 13:44:35;;;;;;;;;8.20;8.20;;;;;;;;5196888;28;8925;-71
2022/05/21 13:47:10;;;;;;;;;10.40;10.40;;;;;;;;5196112;28;8782;-70
2022/05/21 13:49:42;;;;;;;;;5.20;5.20;;;;;;;;5177702;28;9585;-70
2022/05/21 13:52:13;;;;;;;;;6.40;5.20;;;;;;;;5163798;28;8801;-70
2022/05/21 13:54:45;;;;;;;;;7.00;7.00;;;;;;;;5196952;28;8827;-68
2022/05/21 13:57:24;;;;;;;;;20.60;20.40;;;;;;;;5223899;28;8806;-71
2022/05/21 13:59:59;;;;;;;;;4.00;4.00;;;;;;;;5213532;28;8892;-71
2022/05/21 14:02:34;;;;;;;;;9.80;9.60;;;;;;;;5227436;28;8876;-70
2022/05/21 14:05:25;;;;;;;;;4.60;4.60;;;;;;;;5227400;28;8803;-69
2022/05/21 14:07:57;;;;;;;;;3.00;2.60;;;;;;;;5227363;28;8775;-68
2022/05/21 14:10:38;;;;;;;;;11.60;11.60;;;;;;;;5209602;28;8822;-70
2022/05/21 14:13:25;;;;;;;;;11.00;11.00;;;;;;;;5227479;28;8814;-71
2022/05/21 14:15:57;;;;;;;;;8.00;7.80;;;;;;;;5186061;28;8821;-71
2022/05/21 14:18:36;;;;;;;;;3.60;3.40;;;;;;;;5206429;28;9497;-70
2022/05/21 14:21:25;;;;;;;;;20.60;19.40;;;;;;;;5198588;28;8778;-70
2022/05/21 14:24:31;;;;;;;;;7.00;7.00;;;;;;;;5200693;28;8797;-70
2022/05/21 14:27:04;;;;;;;;;18.00;17.20;;;;;;;;5143715;28;8867;-71
2022/05/21 14:29:35;;;;;;;;;14.80;13.80;;;;;;;;5190771;28;9547;-70
2022/05/21 14:32:13;;;;;;;;;4.00;4.00;;;;;;;;5227091;28;8808;-71
2022/05/21 14:34:45;;;;;;;;;8.60;7.80;;;;;;;;5192840;28;9612;-70
2022/05/21 14:37:26;;;;;;;;;6.00;6.00;;;;;;;;5209620;28;8826;-70
2022/05/21 14:39:57;;;;;;;;;5.80;5.80;;;;;;;;5210477;28;9520;-71
2022/05/21 14:42:28;;;;;;;;;5.00;5.00;;;;;;;;5227382;28;8803;-71
2022/05/21 14:45:25;;;;;;;;;55.40;46.80;;;;;;;;5230332;28;8787;-72
2022/05/21 14:48:00;;;;;;;;;13.60;13.60;;;;;;;;5230094;28;9546;-71
2022/05/21 14:53:43;;;;;;;;;9.00;9.00;;;;;;;;5214254;28;9665;-72
2022/05/21 14:56:21;;;;;;;;;9.25;9.25;;;;;;;;5208929;28;8787;-69
2022/05/21 14:58:54;;;;;;;;;4.25;4.25;;;;;;;;5208973;28;8799;-69
2022/05/21 15:01:26;;;;;;;;;10.00;10.00;;;;;;;;5208781;28;8817;-70
2022/05/21 15:03:57;;;;;;;;;7.80;7.20;;;;;;;;5182536;28;8819;-69
2022/05/21 15:06:33;;;;;;;;;5.00;5.00;;;;;;;;5195770;28;8797;-69
2022/05/21 15:09:05;;;;;;;;;12.20;12.20;;;;;;;;5187767;28;8816;-70
2022/05/21 15:11:39;;;;;;;;;30.40;28.80;;;;;;;;5171737;28;8789;-69
2022/05/21 15:14:28;;;;;;;;;14.60;13.40;;;;;;;;5205626;28;8793;-69
2022/05/21 15:16:59;;;;;;;;;5.00;4.25;;;;;;;;5187535;28;8859;-71
2022/05/21 15:19:30;;;;;;;;;2.00;2.00;;;;;;;;5202661;28;8809;-69
2022/05/21 15:22:07;;;;;;;;;2.00;2.00;;;;;;;;5206047;28;8810;-70
2022/05/21 15:24:38;;;;;;;;;0.00;0.00;;;;;;;;5218272;28;8818;-70
2022/05/21 15:27:10;;;;;;;;;1.60;1.60;;;;;;;;5226314;28;8779;-69
2022/05/21 15:29:44;;;;;;;;;0.00;0.00;;;;;;;;5207971;28;8953;-67
2022/05/21 15:32:15;;;;;;;;;8.20;8.20;;;;;;;;5191512;28;8823;-70
2022/05/21 15:34:51;;;;;;;;;0.00;0.00;;;;;;;;5192776;28;9592;-68
2022/05/21 15:37:22;;;;;;;;;1.60;1.60;;;;;;;;5207408;28;8822;-68
2022/05/21 15:39:53;;;;;;;;;3.40;3.40;;;;;;;;5207808;28;8842;-69
2022/05/21 15:42:24;;;;;;;;;2.75;2.75;;;;;;;;5188616;28;8825;-69
2022/05/21 15:45:17;;;;;;;;;24.00;21.40;;;;;;;;5185120;28;8842;-70
2022/05/21 15:47:48;;;;;;;;;51.80;45.60;;;;;;;;5166378;28;8788;-70
2022/05/21 15:50:23;;;;;;;;;23.00;20.75;;;;;;;;5167092;28;8819;-70
2022/05/21 15:52:54;;;;;;;;;37.80;33.80;;;;;;;;5151067;28;8831;-69
2022/05/21 15:55:28;;;;;;;;;22.00;20.80;;;;;;;;5184681;28;8858;-70
2022/05/21 15:58:00;;;;;;;;;28.60;26.80;;;;;;;;5203286;28;8804;-68
2022/05/21 16:00:33;;;;;;;;;23.40;23.20;;;;;;;;5183957;28;8791;-68
2022/05/21 16:03:04;;;;;;;;;27.00;26.80;;;;;;;;5183117;28;8788;-68
2022/05/21 16:05:54;;;;;;;;;17.40;17.40;;;;;;;;5184445;28;8815;-67
2022/05/21 16:08:25;;;;;;;;;26.20;25.20;;;;;;;;5182961;28;8791;-70
2022/05/21 16:10:56;;;;;;;;;10.60;10.60;;;;;;;;5183226;28;8835;-69
2022/05/21 16:13:46;;;;;;;;;25.80;25.00;;;;;;;;5189763;28;8897;-69
2022/05/21 16:16:17;;;;;;;;;25.40;24.60;;;;;;;;5163137;28;8825;-69
2022/05/21 16:18:48;;;;;;;;;17.25;16.50;;;;;;;;5204476;28;8808;-70
2022/05/21 16:21:21;;;;;;;;;10.80;10.60;;;;;;;;5203991;28;8797;-69
2022/05/21 16:23:53;;;;;;;;;39.80;36.80;;;;;;;;5182368;28;8811;-70
2022/05/21 16:29:15;;;;;;;;;6.00;6.00;;;;;;;;5166140;28;8819;-69
2022/05/21 16:31:46;;;;;;;;;8.00;8.00;;;;;;;;5166835;28;8779;-68